sensor_id;sensor_type;location;lat;lon;timestamp;temperature;humidity
13835;DHT22;6988;52.614;13.500;2023-01-09T00:02:59;5.20;99.90
13835;DHT22;6988;52.614;13.500;2023-01-09T00:07:50;5.10;99.90
13835;DHT22;6988;52.614;13.500;2023-01-09T00:12:42;5.10;99.90
13835;DHT22;6988;52.614;13.500;2023-01-09T00:17:34;5.00;99.90
13835;DHT22;6988;52.614;13.500;2023-01-09T00:22:27;5.10;99.90
13835;DHT22;6988;52.614;13.500;2023-01-09T00:27:19;4.90;99.90
13835;DHT22;6988;52.614;13.500;2023-01-09T00:32:11;4.80;99.90
13835;DHT22;6988;52.614;13.500;2023-01-09T00:37:03;4.70;99.90
13835;DHT22;6988;52.614;13.500;2023-01-09T00:42:03;4.60;99.90
13835;DHT22;6988;52.614;13.500;2023-01-09T00:46:57;4.50;99.90
13835;DHT22;6988;52.614;13.500;2023-01-09T00:51:53;4.50;99.90
13835;DHT22;6988;52.614;13.500;2023-01-09T00:56:46;4.50;99.90
13835;DHT22;6988;52.614;13.500;2023-01-09T01:01:39;4.50;99.90
13835;DHT22;6988;52.614;13.500;2023-01-09T01:06:31;4.40;99.90
13835;DHT22;6988;52.614;13.500;2023-01-09T01:11:42;4.30;99.90
13835;DHT22;6988;52.614;13.500;2023-01-09T01:16:33;4.20;99.90
13835;DHT22;6988;52.614;13.500;2023-01-09T01:21:29;4.10;99.90
13835;DHT22;6988;52.614;13.500;2023-01-09T01:26:20;4.20;99.90
13835;DHT22;6988;52.614;13.500;2023-01-09T01:31:16;4.10;99.90
13835;DHT22;6988;52.614;13.500;2023-01-09T01:36:09;4.10;99.90
13835;DHT22;6988;52.614;13.500;2023-01-09T01:41:04;4.00;99.90
13835;DHT22;6988;52.614;13.500;2023-01-09T01:45:56;3.70;99.90
13835;DHT22;6988;52.614;13.500;2023-01-09T01:50:52;3.80;99.90
13835;DHT22;6988;52.614;13.500;2023-01-09T01:55:56;3.80;99.90
13835;DHT22;6988;52.614;13.500;2023-01-09T02:00:57;3.70;99.90
13835;DHT22;6988;52.614;13.500;2023-01-09T02:05:49;3.50;99.90
13835;DHT22;6988;52.614;13.500;2023-01-09T02:10:41;3.40;99.90
13835;DHT22;6988;52.614;13.500;2023-01-09T02:15:42;3.40;99.90
13835;DHT22;6988;52.614;13.500;2023-01-09T02:20:53;3.30;99.90
13835;DHT22;6988;52.614;13.500;2023-01-09T02:31:36;3.10;99.90
13835;DHT22;6988;52.614;13.500;2023-01-09T02:36:40;3.10;99.90
13835;DHT22;6988;52.614;13.500;2023-01-09T02:41:47;3.00;99.90
13835;DHT22;6988;52.614;13.500;2023-01-09T02:46:45;3.00;99.90
13835;DHT22;6988;52.614;13.500;2023-01-09T02:51:42;2.90;99.90
13835;DHT22;6988;52.614;13.500;2023-01-09T03:02:36;2.80;99.90
13835;DHT22;6988;52.614;13.500;2023-01-09T03:07:36;2.80;99.90
13835;DHT22;6988;52.614;13.500;2023-01-09T03:12:32;2.90;99.90
13835;DHT22;6988;52.614;13.500;2023-01-09T03:17:31;3.00;99.90
13835;DHT22;6988;52.614;13.500;2023-01-09T03:22:27;3.10;99.90
13835;DHT22;6988;52.614;13.500;2023-01-09T03:27:18;3.00;99.90
13835;DHT22;6988;52.614;13.500;2023-01-09T03:32:11;3.10;99.90
13835;DHT22;6988;52.614;13.500;2023-01-09T03:37:05;3.00;99.90
13835;DHT22;6988;52.614;13.500;2023-01-09T03:41:59;3.00;99.90
13835;DHT22;6988;52.614;13.500;2023-01-09T03:46:51;3.00;99.90
13835;DHT22;6988;52.614;13.500;2023-01-09T03:51:43;3.10;99.90
13835;DHT22;6988;52.614;13.500;2023-01-09T03:56:36;3.30;99.90
13835;DHT22;6988;52.614;13.500;2023-01-09T04:01:28;3.30;99.90
13835;DHT22;6988;52.614;13.500;2023-01-09T04:06:20;3.60;99.90
13835;DHT22;6988;52.614;13.500;2023-01-09T04:11:12;3.70;99.90
13835;DHT22;6988;52.614;13.500;2023-01-09T04:16:08;3.90;99.90
13835;DHT22;6988;52.614;13.500;2023-01-09T04:21:00;3.90;99.90
13835;DHT22;6988;52.614;13.500;2023-01-09T04:25:51;3.90;99.90
13835;DHT22;6988;52.614;13.500;2023-01-09T04:30:43;4.00;99.90
13835;DHT22;6988;52.614;13.500;2023-01-09T04:35:37;4.00;99.90
13835;DHT22;6988;52.614;13.500;2023-01-09T04:40:28;4.10;99.90
13835;DHT22;6988;52.614;13.500;2023-01-09T04:45:20;4.10;99.90
13835;DHT22;6988;52.614;13.500;2023-01-09T04:50:12;4.10;99.90
13835;DHT22;6988;52.614;13.500;2023-01-09T04:55:07;4.10;99.90
13835;DHT22;6988;52.614;13.500;2023-01-09T04:59:59;4.10;99.90
13835;DHT22;6988;52.614;13.500;2023-01-09T05:04:50;4.10;99.90
13835;DHT22;6988;52.614;13.500;2023-01-09T05:09:42;4.20;99.90
13835;DHT22;6988;52.614;13.500;2023-01-09T05:14:35;4.30;99.90
13835;DHT22;6988;52.614;13.500;2023-01-09T05:19:27;4.40;99.90
13835;DHT22;6988;52.614;13.500;2023-01-09T05:24:19;4.40;99.90
13835;DHT22;6988;52.614;13.500;2023-01-09T05:29:11;4.40;99.90
13835;DHT22;6988;52.614;13.500;2023-01-09T05:34:04;4.40;99.90
13835;DHT22;6988;52.614;13.500;2023-01-09T05:38:56;4.50;99.90
13835;DHT22;6988;52.614;13.500;2023-01-09T05:43:48;4.60;99.90
13835;DHT22;6988;52.614;13.500;2023-01-09T05:48:40;4.70;99.90
13835;DHT22;6988;52.614;13.500;2023-01-09T05:53:34;5.00;99.90
13835;DHT22;6988;52.614;13.500;2023-01-09T05:58:26;5.20;99.90
13835;DHT22;6988;52.614;13.500;2023-01-09T06:03:18;5.30;99.90
13835;DHT22;6988;52.614;13.500;2023-01-09T06:08:10;5.30;99.90
13835;DHT22;6988;52.614;13.500;2023-01-09T06:13:03;5.30;99.90
13835;DHT22;6988;52.614;13.500;2023-01-09T06:17:55;5.40;99.90
13835;DHT22;6988;52.614;13.500;2023-01-09T06:22:47;5.30;99.90
13835;DHT22;6988;52.614;13.500;2023-01-09T06:27:41;5.40;99.90
13835;DHT22;6988;52.614;13.500;2023-01-09T06:32:34;5.30;99.90
13835;DHT22;6988;52.614;13.500;2023-01-09T06:37:26;5.40;99.90
13835;DHT22;6988;52.614;13.500;2023-01-09T06:42:18;5.40;99.90
13835;DHT22;6988;52.614;13.500;2023-01-09T06:47:10;5.50;99.90
13835;DHT22;6988;52.614;13.500;2023-01-09T06:52:03;5.50;99.90
13835;DHT22;6988;52.614;13.500;2023-01-09T06:56:57;5.60;99.90
13835;DHT22;6988;52.614;13.500;2023-01-09T07:01:48;5.60;99.90
13835;DHT22;6988;52.614;13.500;2023-01-09T07:06:40;5.60;99.90
13835;DHT22;6988;52.614;13.500;2023-01-09T07:11:33;5.50;99.90
13835;DHT22;6988;52.614;13.500;2023-01-09T07:16:25;5.60;99.90
13835;DHT22;6988;52.614;13.500;2023-01-09T07:21:17;5.60;99.90
13835;DHT22;6988;52.614;13.500;2023-01-09T07:26:09;5.70;99.90
13835;DHT22;6988;52.614;13.500;2023-01-09T07:31:02;5.80;99.90
13835;DHT22;6988;52.614;13.500;2023-01-09T07:35:56;5.70;99.90
13835;DHT22;6988;52.614;13.500;2023-01-09T07:40:48;5.80;99.90
13835;DHT22;6988;52.614;13.500;2023-01-09T07:45:40;5.80;99.90
13835;DHT22;6988;52.614;13.500;2023-01-09T07:50:33;5.70;99.90
13835;DHT22;6988;52.614;13.500;2023-01-09T07:55:25;5.60;99.90
13835;DHT22;6988;52.614;13.500;2023-01-09T08:00:18;5.70;99.90
13835;DHT22;6988;52.614;13.500;2023-01-09T08:05:10;5.70;99.90
13835;DHT22;6988;52.614;13.500;2023-01-09T08:10:06;5.70;99.90
13835;DHT22;6988;52.614;13.500;2023-01-09T08:14:59;5.70;99.90
13835;DHT22;6988;52.614;13.500;2023-01-09T08:19:51;5.70;99.90
13835;DHT22;6988;52.614;13.500;2023-01-09T08:24:43;5.80;99.90
13835;DHT22;6988;52.614;13.500;2023-01-09T08:29:36;5.90;99.90
13835;DHT22;6988;52.614;13.500;2023-01-09T08:34:28;5.80;99.90
13835;DHT22;6988;52.614;13.500;2023-01-09T08:39:21;5.80;99.90
13835;DHT22;6988;52.614;13.500;2023-01-09T08:44:16;5.90;99.90
13835;DHT22;6988;52.614;13.500;2023-01-09T08:49:27;5.90;99.90
13835;DHT22;6988;52.614;13.500;2023-01-09T08:54:18;5.90;99.90
13835;DHT22;6988;52.614;13.500;2023-01-09T08:59:12;5.90;99.90
13835;DHT22;6988;52.614;13.500;2023-01-09T09:04:04;5.90;99.90
13835;DHT22;6988;52.614;13.500;2023-01-09T09:08:57;6.00;99.90
13835;DHT22;6988;52.614;13.500;2023-01-09T09:13:52;6.10;99.90
13835;DHT22;6988;52.614;13.500;2023-01-09T09:18:44;6.20;99.90
13835;DHT22;6988;52.614;13.500;2023-01-09T09:23:36;6.20;99.90
13835;DHT22;6988;52.614;13.500;2023-01-09T09:28:29;6.20;99.90
13835;DHT22;6988;52.614;13.500;2023-01-09T09:33:21;6.20;99.90
13835;DHT22;6988;52.614;13.500;2023-01-09T09:38:12;6.20;99.90
13835;DHT22;6988;52.614;13.500;2023-01-09T09:43:27;6.30;99.90
13835;DHT22;6988;52.614;13.500;2023-01-09T09:48:56;6.30;99.90
13835;DHT22;6988;52.614;13.500;2023-01-09T09:53:56;6.40;99.90
13835;DHT22;6988;52.614;13.500;2023-01-09T09:58:56;6.50;99.90
13835;DHT22;6988;52.614;13.500;2023-01-09T10:03:56;6.60;99.90
13835;DHT22;6988;52.614;13.500;2023-01-09T10:08:54;6.60;99.90
13835;DHT22;6988;52.614;13.500;2023-01-09T10:13:54;6.60;99.90
13835;DHT22;6988;52.614;13.500;2023-01-09T10:19:05;6.70;99.90
13835;DHT22;6988;52.614;13.500;2023-01-09T10:29:48;6.80;99.90
13835;DHT22;6988;52.614;13.500;2023-01-09T10:34:57;6.90;99.90
13835;DHT22;6988;52.614;13.500;2023-01-09T10:39:59;7.10;99.90
13835;DHT22;6988;52.614;13.500;2023-01-09T10:45:01;7.10;99.90
13835;DHT22;6988;52.614;13.500;2023-01-09T10:49:56;7.20;99.90
13835;DHT22;6988;52.614;13.500;2023-01-09T10:54:53;7.30;99.90
13835;DHT22;6988;52.614;13.500;2023-01-09T10:59:46;7.50;99.90
13835;DHT22;6988;52.614;13.500;2023-01-09T11:04:40;7.50;99.90
13835;DHT22;6988;52.614;13.500;2023-01-09T11:09:53;7.60;99.90
13835;DHT22;6988;52.614;13.500;2023-01-09T11:14:46;7.60;99.90
13835;DHT22;6988;52.614;13.500;2023-01-09T11:19:44;7.60;99.90
13835;DHT22;6988;52.614;13.500;2023-01-09T11:24:58;7.70;99.90
13835;DHT22;6988;52.614;13.500;2023-01-09T11:30:18;7.70;99.90
13835;DHT22;6988;52.614;13.500;2023-01-09T11:35:18;7.70;99.90
13835;DHT22;6988;52.614;13.500;2023-01-09T11:40:19;7.80;99.90
13835;DHT22;6988;52.614;13.500;2023-01-09T11:45:14;7.80;99.90
13835;DHT22;6988;52.614;13.500;2023-01-09T11:50:17;7.80;99.90
13835;DHT22;6988;52.614;13.500;2023-01-09T11:55:11;7.80;99.90
13835;DHT22;6988;52.614;13.500;2023-01-09T12:00:22;7.90;99.90
13835;DHT22;6988;52.614;13.500;2023-01-09T12:05:28;7.90;99.90
13835;DHT22;6988;52.614;13.500;2023-01-09T12:10:48;8.00;99.90
13835;DHT22;6988;52.614;13.500;2023-01-09T12:15:58;8.00;99.90
13835;DHT22;6988;52.614;13.500;2023-01-09T12:21:13;8.10;99.90
13835;DHT22;6988;52.614;13.500;2023-01-09T12:26:18;8.30;99.90
13835;DHT22;6988;52.614;13.500;2023-01-09T12:31:25;8.60;99.90
13835;DHT22;6988;52.614;13.500;2023-01-09T12:36:31;8.80;99.90
13835;DHT22;6988;52.614;13.500;2023-01-09T12:41:56;9.00;99.90
13835;DHT22;6988;52.614;13.500;2023-01-09T12:47:17;9.30;99.90
13835;DHT22;6988;52.614;13.500;2023-01-09T12:52:30;9.20;99.90
13835;DHT22;6988;52.614;13.500;2023-01-09T12:57:28;9.20;99.90
13835;DHT22;6988;52.614;13.500;2023-01-09T13:02:26;9.20;99.90
13835;DHT22;6988;52.614;13.500;2023-01-09T13:07:27;9.10;99.90
13835;DHT22;6988;52.614;13.500;2023-01-09T13:12:24;8.80;99.90
13835;DHT22;6988;52.614;13.500;2023-01-09T13:17:28;8.60;99.90
13835;DHT22;6988;52.614;13.500;2023-01-09T13:22:26;8.60;99.90
13835;DHT22;6988;52.614;13.500;2023-01-09T13:27:23;8.60;99.90
13835;DHT22;6988;52.614;13.500;2023-01-09T13:32:32;8.60;99.90
13835;DHT22;6988;52.614;13.500;2023-01-09T13:37:35;8.70;99.90
13835;DHT22;6988;52.614;13.500;2023-01-09T13:42:28;8.60;99.90
13835;DHT22;6988;52.614;13.500;2023-01-09T13:47:28;8.60;99.90
13835;DHT22;6988;52.614;13.500;2023-01-09T13:52:39;8.70;99.90
13835;DHT22;6988;52.614;13.500;2023-01-09T13:57:33;8.70;99.90
13835;DHT22;6988;52.614;13.500;2023-01-09T14:02:53;8.60;99.90
13835;DHT22;6988;52.614;13.500;2023-01-09T14:07:49;8.60;99.90
13835;DHT22;6988;52.614;13.500;2023-01-09T14:12:42;8.50;99.90
13835;DHT22;6988;52.614;13.500;2023-01-09T14:17:35;8.50;99.90
13835;DHT22;6988;52.614;13.500;2023-01-09T14:22:30;8.40;99.90
13835;DHT22;6988;52.614;13.500;2023-01-09T14:28:05;8.30;99.90
13835;DHT22;6988;52.614;13.500;2023-01-09T14:33:26;8.20;99.90
13835;DHT22;6988;52.614;13.500;2023-01-09T14:38:26;8.20;99.90
13835;DHT22;6988;52.614;13.500;2023-01-09T14:43:30;8.10;99.90
13835;DHT22;6988;52.614;13.500;2023-01-09T14:48:33;8.10;99.90
13835;DHT22;6988;52.614;13.500;2023-01-09T14:53:28;8.10;99.90
13835;DHT22;6988;52.614;13.500;2023-01-09T14:58:25;8.10;99.90
13835;DHT22;6988;52.614;13.500;2023-01-09T15:03:19;8.00;99.90
13835;DHT22;6988;52.614;13.500;2023-01-09T15:08:15;7.90;99.90
13835;DHT22;6988;52.614;13.500;2023-01-09T15:13:14;7.90;99.90
13835;DHT22;6988;52.614;13.500;2023-01-09T15:18:17;7.80;99.90
13835;DHT22;6988;52.614;13.500;2023-01-09T15:23:21;7.80;99.90
13835;DHT22;6988;52.614;13.500;2023-01-09T15:28:27;7.70;99.90
13835;DHT22;6988;52.614;13.500;2023-01-09T15:33:22;7.70;99.90
13835;DHT22;6988;52.614;13.500;2023-01-09T15:38:17;7.60;99.90
13835;DHT22;6988;52.614;13.500;2023-01-09T15:43:12;7.60;99.90
13835;DHT22;6988;52.614;13.500;2023-01-09T15:48:20;7.60;99.90
13835;DHT22;6988;52.614;13.500;2023-01-09T15:53:17;7.60;99.90
13835;DHT22;6988;52.614;13.500;2023-01-09T15:58:31;7.50;99.90
13835;DHT22;6988;52.614;13.500;2023-01-09T16:03:26;7.50;99.90
13835;DHT22;6988;52.614;13.500;2023-01-09T16:08:24;7.50;99.90
13835;DHT22;6988;52.614;13.500;2023-01-09T16:13:21;7.40;99.90
13835;DHT22;6988;52.614;13.500;2023-01-09T16:18:20;7.40;99.90
13835;DHT22;6988;52.614;13.500;2023-01-09T16:23:28;7.30;99.90
13835;DHT22;6988;52.614;13.500;2023-01-09T16:28:24;7.30;99.90
13835;DHT22;6988;52.614;13.500;2023-01-09T16:33:19;7.10;99.90
13835;DHT22;6988;52.614;13.500;2023-01-09T16:38:13;6.90;99.90
13835;DHT22;6988;52.614;13.500;2023-01-09T16:43:08;6.80;99.90
13835;DHT22;6988;52.614;13.500;2023-01-09T16:48:10;6.80;99.90
13835;DHT22;6988;52.614;13.500;2023-01-09T16:53:12;6.80;99.90
13835;DHT22;6988;52.614;13.500;2023-01-09T16:58:12;6.70;99.90
13835;DHT22;6988;52.614;13.500;2023-01-09T17:03:04;6.80;99.90
13835;DHT22;6988;52.614;13.500;2023-01-09T17:07:56;6.70;99.90
13835;DHT22;6988;52.614;13.500;2023-01-09T17:12:48;6.70;99.90
13835;DHT22;6988;52.614;13.500;2023-01-09T17:17:41;6.80;99.90
13835;DHT22;6988;52.614;13.500;2023-01-09T17:22:33;6.80;99.90
13835;DHT22;6988;52.614;13.500;2023-01-09T17:27:27;6.70;99.90
13835;DHT22;6988;52.614;13.500;2023-01-09T17:32:40;6.70;99.90
13835;DHT22;6988;52.614;13.500;2023-01-09T17:37:32;6.60;99.90
13835;DHT22;6988;52.614;13.500;2023-01-09T17:42:24;6.60;99.90
13835;DHT22;6988;52.614;13.500;2023-01-09T17:47:16;6.60;99.90
13835;DHT22;6988;52.614;13.500;2023-01-09T17:52:09;6.60;99.90
13835;DHT22;6988;52.614;13.500;2023-01-09T17:57:01;6.50;99.90
13835;DHT22;6988;52.614;13.500;2023-01-09T18:01:56;6.60;99.90
13835;DHT22;6988;52.614;13.500;2023-01-09T18:06:48;6.60;99.90
13835;DHT22;6988;52.614;13.500;2023-01-09T18:11:41;6.60;99.90
13835;DHT22;6988;52.614;13.500;2023-01-09T18:16:33;6.50;99.90
13835;DHT22;6988;52.614;13.500;2023-01-09T18:21:26;6.60;99.90
13835;DHT22;6988;52.614;13.500;2023-01-09T18:26:20;6.50;99.90
13835;DHT22;6988;52.614;13.500;2023-01-09T18:31:14;6.50;99.90
13835;DHT22;6988;52.614;13.500;2023-01-09T18:36:11;6.60;99.90
13835;DHT22;6988;52.614;13.500;2023-01-09T18:41:04;6.50;99.90
13835;DHT22;6988;52.614;13.500;2023-01-09T18:45:56;6.60;99.90
13835;DHT22;6988;52.614;13.500;2023-01-09T18:50:49;6.60;99.90
13835;DHT22;6988;52.614;13.500;2023-01-09T18:55:41;6.70;99.90
13835;DHT22;6988;52.614;13.500;2023-01-09T19:00:33;6.70;99.90
13835;DHT22;6988;52.614;13.500;2023-01-09T19:05:26;6.80;99.90
13835;DHT22;6988;52.614;13.500;2023-01-09T19:10:19;6.90;99.90
13835;DHT22;6988;52.614;13.500;2023-01-09T19:15:11;6.90;99.90
13835;DHT22;6988;52.614;13.500;2023-01-09T19:20:03;7.00;99.90
13835;DHT22;6988;52.614;13.500;2023-01-09T19:24:56;7.10;99.90
13835;DHT22;6988;52.614;13.500;2023-01-09T19:29:49;7.20;99.90
13835;DHT22;6988;52.614;13.500;2023-01-09T19:34:41;7.20;99.90
13835;DHT22;6988;52.614;13.500;2023-01-09T19:39:33;7.20;99.90
13835;DHT22;6988;52.614;13.500;2023-01-09T19:44:25;7.20;99.90
13835;DHT22;6988;52.614;13.500;2023-01-09T19:49:18;7.20;99.90
13835;DHT22;6988;52.614;13.500;2023-01-09T19:54:10;7.30;99.90
13835;DHT22;6988;52.614;13.500;2023-01-09T19:59:03;7.30;99.90
13835;DHT22;6988;52.614;13.500;2023-01-09T20:03:56;7.30;99.90
13835;DHT22;6988;52.614;13.500;2023-01-09T20:08:55;7.30;99.90
13835;DHT22;6988;52.614;13.500;2023-01-09T20:13:47;7.40;99.90
13835;DHT22;6988;52.614;13.500;2023-01-09T20:18:40;7.40;99.90
13835;DHT22;6988;52.614;13.500;2023-01-09T20:23:32;7.40;99.90
13835;DHT22;6988;52.614;13.500;2023-01-09T20:28:27;7.40;99.90
13835;DHT22;6988;52.614;13.500;2023-01-09T20:33:19;7.40;99.90
13835;DHT22;6988;52.614;13.500;2023-01-09T20:38:12;7.40;99.90
13835;DHT22;6988;52.614;13.500;2023-01-09T20:43:05;7.40;99.90
13835;DHT22;6988;52.614;13.500;2023-01-09T20:47:59;7.40;99.90
13835;DHT22;6988;52.614;13.500;2023-01-09T20:52:51;7.30;99.90
13835;DHT22;6988;52.614;13.500;2023-01-09T20:57:43;7.30;99.90
13835;DHT22;6988;52.614;13.500;2023-01-09T21:02:35;7.30;99.90
13835;DHT22;6988;52.614;13.500;2023-01-09T21:07:29;7.20;99.90
13835;DHT22;6988;52.614;13.500;2023-01-09T21:12:21;7.20;99.90
13835;DHT22;6988;52.614;13.500;2023-01-09T21:17:17;7.10;99.90
13835;DHT22;6988;52.614;13.500;2023-01-09T21:22:09;7.20;99.90
13835;DHT22;6988;52.614;13.500;2023-01-09T21:27:02;7.10;99.90
13835;DHT22;6988;52.614;13.500;2023-01-09T21:31:54;7.30;99.90
13835;DHT22;6988;52.614;13.500;2023-01-09T21:36:46;7.20;99.90
13835;DHT22;6988;52.614;13.500;2023-01-09T21:41:38;7.20;99.90
13835;DHT22;6988;52.614;13.500;2023-01-09T21:46:50;7.20;99.90
13835;DHT22;6988;52.614;13.500;2023-01-09T21:51:42;7.30;99.90
13835;DHT22;6988;52.614;13.500;2023-01-09T21:56:34;7.30;99.90
13835;DHT22;6988;52.614;13.500;2023-01-09T22:01:26;7.30;99.90
13835;DHT22;6988;52.614;13.500;2023-01-09T22:06:19;7.40;99.90
13835;DHT22;6988;52.614;13.500;2023-01-09T22:11:12;7.40;99.90
13835;DHT22;6988;52.614;13.500;2023-01-09T22:16:05;7.40;99.90
13835;DHT22;6988;52.614;13.500;2023-01-09T22:21:00;7.40;99.90
13835;DHT22;6988;52.614;13.500;2023-01-09T22:25:53;7.40;99.90
13835;DHT22;6988;52.614;13.500;2023-01-09T22:30:45;7.40;99.90
13835;DHT22;6988;52.614;13.500;2023-01-09T22:35:39;7.40;99.90
13835;DHT22;6988;52.614;13.500;2023-01-09T22:40:32;7.40;99.90
13835;DHT22;6988;52.614;13.500;2023-01-09T22:45:25;7.50;99.90
13835;DHT22;6988;52.614;13.500;2023-01-09T23:04:37;7.20;99.90
13835;DHT22;6988;52.614;13.500;2023-01-09T23:09:29;7.20;99.90
13835;DHT22;6988;52.614;13.500;2023-01-09T23:14:20;7.20;99.90
13835;DHT22;6988;52.614;13.500;2023-01-09T23:19:12;7.30;99.90
13835;DHT22;6988;52.614;13.500;2023-01-09T23:24:06;7.30;99.90
13835;DHT22;6988;52.614;13.500;2023-01-09T23:28:59;7.40;99.90
13835;DHT22;6988;52.614;13.500;2023-01-09T23:33:51;7.40;99.90
13835;DHT22;6988;52.614;13.500;2023-01-09T23:38:43;7.30;99.90
13835;DHT22;6988;52.614;13.500;2023-01-09T23:43:37;7.30;99.90
13835;DHT22;6988;52.614;13.500;2023-01-09T23:48:31;7.30;99.90
13835;DHT22;6988;52.614;13.500;2023-01-09T23:53:23;7.30;99.90
13835;DHT22;6988;52.614;13.500;2023-01-09T23:58:15;7.30;99.90
